Terminal Aerodrome Forecast
Issued by NWS

Home | Current Version | Previous Version | Graphics & Text | Print | Product List | Glossary On
Versions: 1 2 3 4 5 6 7 8 9 10 11 12 13 14 15 16 17 18 19 20 21 22
407
FTUS43 KABR 250533
TAFMBG
TAF
KMBG 250533Z 2506/2606 19012G19KT P6SM BKN022
     FM250900 29024G34KT P6SM VCSH OVC015
     FM251300 31024G34KT P6SM BKN035
     FM251500 32027G37KT P6SM SKC
     FM260100 30011KT P6SM SKC=

USA.gov is the U.S. government's official web portal to all federal, state and local government web resources and services.